createdAt,value
2017-12-12T00:00:00.775Z,976.91
2017-12-12T00:01:00.780Z,976.90
2017-12-12T00:02:00.784Z,976.90
2017-12-12T00:03:00.790Z,976.93
2017-12-12T00:04:01.247Z,976.96
2017-12-12T00:05:00.794Z,976.98
2017-12-12T00:06:00.799Z,977.01
2017-12-12T00:07:00.811Z,977.04
2017-12-12T00:09:00.818Z,977.11
2017-12-12T00:10:00.821Z,977.16
2017-12-12T00:11:00.819Z,977.23
2017-12-12T00:12:00.830Z,977.20
2017-12-12T00:13:00.839Z,977.26
2017-12-12T00:14:00.844Z,977.32
2017-12-12T00:15:00.850Z,977.29
2017-12-12T00:16:00.874Z,977.38
2017-12-12T00:17:00.855Z,977.34
2017-12-12T00:18:00.869Z,977.38
2017-12-12T00:19:00.865Z,977.39
2017-12-12T00:20:00.881Z,977.38
2017-12-12T00:21:00.876Z,977.49
2017-12-12T00:22:00.895Z,977.40
2017-12-12T00:23:00.880Z,977.42
2017-12-12T00:24:00.891Z,977.49
2017-12-12T00:25:00.918Z,977.54
2017-12-12T00:26:00.890Z,977.53
2017-12-12T00:27:00.952Z,977.57
2017-12-12T00:28:01.000Z,977.60
2017-12-12T00:29:00.920Z,977.67
2017-12-12T00:30:00.916Z,977.70
2017-12-12T00:31:00.923Z,977.72
2017-12-12T00:32:00.922Z,977.77
2017-12-12T00:33:00.933Z,977.81
2017-12-12T00:34:01.016Z,977.85
2017-12-12T00:35:00.941Z,977.89
2017-12-12T00:36:00.994Z,977.91
2017-12-12T00:37:00.960Z,977.95
2017-12-12T00:38:00.956Z,977.99
2017-12-12T00:40:00.976Z,978.04
2017-12-12T00:41:01.092Z,978.10
2017-12-12T00:42:03.509Z,978.14
2017-12-12T00:43:00.980Z,978.17
2017-12-12T00:44:00.993Z,978.27
2017-12-12T00:46:01.002Z,978.32
2017-12-12T00:47:01.000Z,978.34
2017-12-12T00:48:01.010Z,978.39
2017-12-12T00:49:01.027Z,978.41
2017-12-12T00:50:01.086Z,978.45
2017-12-12T00:51:01.029Z,978.44
2017-12-12T00:52:01.093Z,978.53
2017-12-12T00:53:03.690Z,978.53
2017-12-12T00:54:01.039Z,978.54
2017-12-12T00:55:01.171Z,978.62
2017-12-12T00:56:01.047Z,978.62
2017-12-12T00:57:01.053Z,978.76
2017-12-12T00:58:01.104Z,978.75
2017-12-12T01:00:01.066Z,978.81
2017-12-12T01:01:01.076Z,978.83
2017-12-12T01:02:01.081Z,978.83
2017-12-12T01:03:01.090Z,978.84
2017-12-12T01:04:01.103Z,978.86
2017-12-12T01:05:01.085Z,978.88
2017-12-12T01:06:01.100Z,978.96
2017-12-12T01:07:01.120Z,979.03
2017-12-12T01:08:01.122Z,979.03
2017-12-12T01:09:01.100Z,979.07
2017-12-12T01:10:01.120Z,979.15
2017-12-12T01:11:01.117Z,979.22
2017-12-12T01:12:01.113Z,979.24
2017-12-12T01:13:01.179Z,979.29
2017-12-12T01:14:01.134Z,979.35
2017-12-12T01:15:01.132Z,979.35
2017-12-12T01:16:01.130Z,979.40
2017-12-12T01:17:01.150Z,979.42
2017-12-12T01:18:01.150Z,979.46
2017-12-12T01:19:01.147Z,979.47
2017-12-12T01:21:01.164Z,979.56
2017-12-12T01:22:01.169Z,979.64
2017-12-12T01:23:01.168Z,979.70
2017-12-12T01:24:01.186Z,979.74
2017-12-12T01:25:01.184Z,979.78
2017-12-12T01:26:01.189Z,979.86
2017-12-12T01:27:01.189Z,979.87
2017-12-12T01:28:01.194Z,979.99
2017-12-12T01:29:01.201Z,980.01
2017-12-12T01:30:01.665Z,980.05
2017-12-12T01:31:01.204Z,980.16
2017-12-12T01:32:01.210Z,980.11
2017-12-12T01:33:01.218Z,980.19
2017-12-12T01:34:01.224Z,980.21
2017-12-12T01:35:01.239Z,980.22
2017-12-12T01:36:01.236Z,980.24
2017-12-12T01:37:01.244Z,980.26
2017-12-12T01:38:01.237Z,980.27
2017-12-12T01:39:01.245Z,980.37
2017-12-12T01:40:01.250Z,980.40
2017-12-12T01:41:01.257Z,980.45
2017-12-12T01:42:01.258Z,980.43
2017-12-12T01:43:01.272Z,980.47
2017-12-12T01:44:01.269Z,980.50
2017-12-12T01:45:01.278Z,980.54
2017-12-12T01:46:01.316Z,980.62
2017-12-12T01:47:01.282Z,980.63
2017-12-12T01:48:01.283Z,980.68
2017-12-12T01:49:01.285Z,980.73
2017-12-12T01:50:01.294Z,980.80
2017-12-12T01:51:01.579Z,980.84
2017-12-12T01:52:01.306Z,980.84
2017-12-12T01:53:01.308Z,980.84
2017-12-12T01:54:01.327Z,980.88
2017-12-12T01:55:01.317Z,980.97
2017-12-12T01:56:01.322Z,980.98
2017-12-12T01:57:01.319Z,981.01
2017-12-12T01:58:01.323Z,981.02
2017-12-12T01:59:01.433Z,981.11
2017-12-12T02:00:01.576Z,981.09
2017-12-12T02:01:01.382Z,981.13
2017-12-12T02:02:01.349Z,981.24
2017-12-12T02:03:01.479Z,981.27
2017-12-12T02:04:01.350Z,981.36
2017-12-12T02:05:01.358Z,981.37
2017-12-12T02:06:01.363Z,981.38
2017-12-12T02:07:01.377Z,981.45
2017-12-12T02:08:01.376Z,981.43
2017-12-12T02:09:01.377Z,981.50
2017-12-12T02:10:01.646Z,981.57
2017-12-12T02:11:01.460Z,981.58
2017-12-12T02:12:01.382Z,981.58
2017-12-12T02:13:01.391Z,981.65
2017-12-12T02:14:01.398Z,981.67
2017-12-12T02:15:01.408Z,981.71
2017-12-12T02:16:01.403Z,981.71
2017-12-12T02:17:01.723Z,981.79
2017-12-12T02:18:01.428Z,981.83
2017-12-12T02:19:01.424Z,981.84
2017-12-12T02:20:01.427Z,981.92
2017-12-12T02:21:01.424Z,981.93
2017-12-12T02:22:01.435Z,981.96
2017-12-12T02:23:01.432Z,981.94
2017-12-12T02:24:01.930Z,982.05
2017-12-12T02:25:01.448Z,982.09
2017-12-12T02:26:01.454Z,982.18
2017-12-12T02:27:01.588Z,982.16
2017-12-12T02:28:01.455Z,982.20
2017-12-12T02:29:01.462Z,982.23
2017-12-12T02:30:01.480Z,982.32
2017-12-12T02:31:01.780Z,982.33
2017-12-12T02:32:01.477Z,982.40
2017-12-12T02:33:01.483Z,982.39
2017-12-12T02:34:01.483Z,982.48
2017-12-12T02:35:01.758Z,982.51
2017-12-12T02:36:01.489Z,982.57
2017-12-12T02:37:01.503Z,982.58
2017-12-12T02:38:01.502Z,982.62
2017-12-12T02:39:01.530Z,982.61
2017-12-12T02:40:01.499Z,982.66
2017-12-12T02:41:01.511Z,982.65
2017-12-12T02:42:01.512Z,982.67
2017-12-12T02:43:01.516Z,982.74
2017-12-12T02:44:01.529Z,982.76
2017-12-12T02:45:01.528Z,982.80
2017-12-12T02:46:01.538Z,982.84
2017-12-12T02:47:01.547Z,982.87
2017-12-12T02:48:01.550Z,982.87
2017-12-12T02:49:01.546Z,982.93
2017-12-12T02:50:01.553Z,982.99
2017-12-12T02:51:01.557Z,983.07
2017-12-12T02:52:01.562Z,983.08
2017-12-12T02:53:01.569Z,983.09
2017-12-12T02:54:01.573Z,983.11
2017-12-12T02:55:01.561Z,983.21
2017-12-12T02:56:01.589Z,983.27
2017-12-12T02:57:01.581Z,983.27
2017-12-12T02:58:01.583Z,983.32
2017-12-12T02:59:01.585Z,983.36
2017-12-12T03:00:01.595Z,983.38
2017-12-12T03:01:01.595Z,983.44
2017-12-12T03:02:01.609Z,983.50
2017-12-12T03:03:01.605Z,983.47
2017-12-12T03:04:01.608Z,983.50
2017-12-12T03:05:01.679Z,983.61
2017-12-12T03:06:01.632Z,983.57
2017-12-12T03:07:01.626Z,983.62
2017-12-12T03:08:01.638Z,983.59
2017-12-12T03:09:01.625Z,983.70
2017-12-12T03:10:01.632Z,983.73
2017-12-12T03:11:01.962Z,983.76
2017-12-12T03:12:01.648Z,983.78
2017-12-12T03:13:01.650Z,983.81
2017-12-12T03:14:01.656Z,983.81
2017-12-12T03:15:01.661Z,983.89
2017-12-12T03:16:01.652Z,983.90
2017-12-12T03:17:01.664Z,983.96
2017-12-12T03:18:01.670Z,983.98
2017-12-12T03:19:01.791Z,983.96
2017-12-12T03:20:01.685Z,984.05
2017-12-12T03:21:01.752Z,984.09
2017-12-12T03:22:01.688Z,984.12
2017-12-12T03:23:01.691Z,984.19
2017-12-12T03:24:01.694Z,984.24
2017-12-12T03:25:01.874Z,984.33
2017-12-12T03:26:01.713Z,984.30
2017-12-12T03:27:01.702Z,984.35
2017-12-12T03:28:01.763Z,984.38
2017-12-12T03:29:01.716Z,984.45
2017-12-12T03:30:01.714Z,984.53
2017-12-12T03:31:01.724Z,984.49
2017-12-12T03:32:01.723Z,984.60
2017-12-12T03:33:01.725Z,984.62
2017-12-12T03:34:01.732Z,984.67
2017-12-12T03:35:01.742Z,984.73
2017-12-12T03:36:01.743Z,984.73
2017-12-12T03:37:01.746Z,984.77
2017-12-12T03:38:01.751Z,984.82
2017-12-12T03:39:01.751Z,984.91
2017-12-12T03:40:01.759Z,984.92
2017-12-12T03:41:01.761Z,985.01
2017-12-12T03:42:01.818Z,985.02
2017-12-12T03:43:01.761Z,985.09
2017-12-12T03:44:01.778Z,985.11
2017-12-12T03:45:01.793Z,985.13
2017-12-12T03:46:01.812Z,985.15
2017-12-12T03:47:01.790Z,985.16
2017-12-12T03:48:01.793Z,985.22
2017-12-12T03:49:01.795Z,985.33
2017-12-12T03:50:01.807Z,985.34
2017-12-12T03:51:01.803Z,985.38
2017-12-12T03:52:01.817Z,985.44
2017-12-12T03:53:01.813Z,985.43
2017-12-12T03:54:01.825Z,985.58
2017-12-12T03:55:01.827Z,985.59
2017-12-12T03:56:01.946Z,985.57
2017-12-12T03:57:01.832Z,985.60
2017-12-12T03:58:01.841Z,985.70
2017-12-12T03:59:01.832Z,985.74
2017-12-12T04:00:01.844Z,985.73
2017-12-12T04:01:01.848Z,985.81
2017-12-12T04:02:01.855Z,985.86
2017-12-12T04:03:01.857Z,985.92
2017-12-12T04:04:01.867Z,985.97
2017-12-12T04:05:01.862Z,985.97
2017-12-12T04:06:01.871Z,986.03
2017-12-12T04:07:02.214Z,986.04
2017-12-12T04:08:01.872Z,986.17
2017-12-12T04:09:01.880Z,986.15
2017-12-12T04:10:01.880Z,986.20
2017-12-12T04:11:01.903Z,986.27
2017-12-12T04:12:01.895Z,986.32
2017-12-12T04:13:01.895Z,986.31
2017-12-12T04:14:01.909Z,986.37
2017-12-12T04:15:01.905Z,986.40
2017-12-12T04:16:01.908Z,986.45
2017-12-12T04:17:01.918Z,986.52
2017-12-12T04:18:01.924Z,986.55
2017-12-12T04:19:02.018Z,986.50
2017-12-12T04:20:01.923Z,986.64
2017-12-12T04:21:01.930Z,986.62
2017-12-12T04:22:01.936Z,986.59
2017-12-12T04:23:01.941Z,986.68
2017-12-12T04:24:01.944Z,986.70
2017-12-12T04:25:01.951Z,986.79
2017-12-12T04:26:01.952Z,986.80
2017-12-12T04:27:01.953Z,986.83
2017-12-12T04:28:01.958Z,986.89
2017-12-12T04:29:01.971Z,986.94
2017-12-12T04:30:01.965Z,986.98
2017-12-12T04:31:01.971Z,987.06
2017-12-12T04:32:01.979Z,987.04
2017-12-12T04:33:01.975Z,987.04
2017-12-12T04:35:01.983Z,987.16
2017-12-12T04:36:01.992Z,987.28
2017-12-12T04:37:01.998Z,987.16
2017-12-12T04:38:02.003Z,987.22
2017-12-12T04:39:02.007Z,987.29
2017-12-12T04:40:02.005Z,987.38
2017-12-12T04:41:02.128Z,987.41
2017-12-12T04:42:02.016Z,987.48
2017-12-12T04:43:02.908Z,987.48
2017-12-12T04:44:02.020Z,987.53
2017-12-12T04:45:02.033Z,987.58
2017-12-12T04:46:02.036Z,987.61
2017-12-12T04:47:02.128Z,987.69
2017-12-12T04:48:02.042Z,987.71
2017-12-12T04:49:02.050Z,987.75
2017-12-12T04:50:02.055Z,987.85
2017-12-12T04:51:02.058Z,987.79
2017-12-12T04:52:02.065Z,987.85
2017-12-12T04:53:02.062Z,987.88
2017-12-12T04:54:02.070Z,987.94
2017-12-12T04:55:02.065Z,987.98
2017-12-12T04:56:02.075Z,987.93
2017-12-12T04:57:02.077Z,988.03
2017-12-12T04:58:02.075Z,988.04
2017-12-12T04:59:02.095Z,988.09
2017-12-12T05:00:02.093Z,988.12
2017-12-12T05:01:02.098Z,988.25
2017-12-12T05:02:02.099Z,988.21
2017-12-12T05:03:02.104Z,988.29
2017-12-12T05:04:02.109Z,988.30
2017-12-12T05:05:02.119Z,988.38
2017-12-12T05:06:02.123Z,988.35
2017-12-12T05:07:02.122Z,988.46
2017-12-12T05:08:02.129Z,988.49
2017-12-12T05:09:02.133Z,988.55
2017-12-12T05:10:02.140Z,988.58
2017-12-12T05:11:02.146Z,988.64
2017-12-12T05:12:02.143Z,988.65
2017-12-12T05:13:02.149Z,988.68
2017-12-12T05:14:02.156Z,988.72
2017-12-12T05:15:02.156Z,988.71
2017-12-12T05:16:02.149Z,988.73
2017-12-12T05:17:02.162Z,988.83
2017-12-12T05:18:02.174Z,988.79
2017-12-12T05:19:02.181Z,988.87
2017-12-12T05:20:02.187Z,988.92
2017-12-12T05:21:02.184Z,988.99
2017-12-12T05:22:02.191Z,988.98
2017-12-12T05:23:02.197Z,989.03
2017-12-12T05:24:02.199Z,989.11
2017-12-12T05:25:02.215Z,989.09
2017-12-12T05:26:02.206Z,989.16
2017-12-12T05:27:02.208Z,989.12
2017-12-12T05:28:02.321Z,989.23
2017-12-12T05:29:02.216Z,989.21
2017-12-12T05:30:02.223Z,989.25
2017-12-12T05:31:02.223Z,989.31
2017-12-12T05:32:02.229Z,989.30
2017-12-12T05:33:02.236Z,989.34
2017-12-12T05:34:02.241Z,989.36
2017-12-12T05:35:02.245Z,989.40
2017-12-12T05:36:02.245Z,989.38
2017-12-12T05:37:02.251Z,989.48
2017-12-12T05:38:02.255Z,989.49
2017-12-12T05:39:02.260Z,989.54
2017-12-12T05:40:02.258Z,989.54
2017-12-12T05:41:02.274Z,989.62
2017-12-12T05:42:02.268Z,989.65
2017-12-12T05:43:02.268Z,989.67
2017-12-12T05:44:02.277Z,989.72
2017-12-12T05:45:02.280Z,989.78
2017-12-12T05:46:02.287Z,989.76
2017-12-12T05:47:02.296Z,989.82
2017-12-12T05:48:02.296Z,989.84
2017-12-12T05:49:02.295Z,989.87
2017-12-12T05:50:02.300Z,989.82
2017-12-12T05:51:02.346Z,989.82
2017-12-12T05:52:02.308Z,989.86
2017-12-12T05:53:02.322Z,989.89
2017-12-12T05:54:02.318Z,989.95
2017-12-12T05:55:02.345Z,989.97
2017-12-12T05:56:02.347Z,989.99
2017-12-12T05:57:02.351Z,990.04
2017-12-12T05:58:02.336Z,990.05
2017-12-12T05:59:02.340Z,990.09
2017-12-12T06:00:02.346Z,990.10
2017-12-12T06:01:02.392Z,990.10
2017-12-12T06:02:02.356Z,990.14
2017-12-12T06:03:02.371Z,990.13
2017-12-12T06:04:02.365Z,990.15
2017-12-12T06:05:02.377Z,990.18
2017-12-12T06:06:02.370Z,990.15
2017-12-12T06:07:02.373Z,990.25
2017-12-12T06:08:02.375Z,990.26
2017-12-12T06:09:02.371Z,990.29
2017-12-12T06:10:02.390Z,990.34
2017-12-12T06:11:03.432Z,990.40
2017-12-12T06:12:02.390Z,990.37
2017-12-12T06:13:02.397Z,990.40
2017-12-12T06:14:02.397Z,990.41
2017-12-12T06:15:02.410Z,990.48
2017-12-12T06:16:02.408Z,990.50
2017-12-12T06:17:02.410Z,990.56
2017-12-12T06:18:02.450Z,990.54
2017-12-12T06:19:02.420Z,990.51
2017-12-12T06:20:02.426Z,990.60
2017-12-12T06:21:02.427Z,990.67
2017-12-12T06:22:02.427Z,990.68
2017-12-12T06:23:02.430Z,990.74
2017-12-12T06:24:02.460Z,990.72
2017-12-12T06:25:02.444Z,990.77
2017-12-12T06:26:02.454Z,990.79
2017-12-12T06:27:02.463Z,990.87
2017-12-12T06:28:02.461Z,990.88
2017-12-12T06:29:02.474Z,990.98
2017-12-12T06:30:02.487Z,990.94
2017-12-12T06:31:02.469Z,990.97
2017-12-12T06:32:02.474Z,991.03
2017-12-12T06:33:02.502Z,991.06
2017-12-12T06:34:02.490Z,991.05
2017-12-12T06:35:02.482Z,991.06
2017-12-12T06:36:02.494Z,991.11
2017-12-12T06:37:02.498Z,991.08
2017-12-12T06:38:02.499Z,991.18
2017-12-12T06:39:02.503Z,991.21
2017-12-12T06:40:02.512Z,991.21
2017-12-12T06:41:02.510Z,991.26
2017-12-12T06:42:02.514Z,991.34
2017-12-12T06:43:02.522Z,991.31
2017-12-12T06:44:02.527Z,991.42
2017-12-12T06:45:02.534Z,991.36
2017-12-12T06:46:02.530Z,991.40
2017-12-12T06:47:02.533Z,991.44
2017-12-12T06:48:02.541Z,991.47
2017-12-12T06:49:02.551Z,991.50
2017-12-12T06:50:02.548Z,991.52
2017-12-12T06:51:02.551Z,991.52
2017-12-12T06:52:02.570Z,991.56
2017-12-12T06:53:02.559Z,991.54
2017-12-12T06:54:02.643Z,991.56
2017-12-12T06:55:02.597Z,991.68
2017-12-12T06:56:02.567Z,991.62
2017-12-12T06:57:02.576Z,991.71
2017-12-12T06:58:02.584Z,991.69
2017-12-12T06:59:02.582Z,991.81
2017-12-12T07:00:02.587Z,991.84
2017-12-12T07:01:02.590Z,991.81
2017-12-12T07:02:02.596Z,991.88
2017-12-12T07:03:02.603Z,991.97
2017-12-12T07:04:02.605Z,992.02
2017-12-12T07:05:02.716Z,992.06
2017-12-12T07:06:02.608Z,992.08
2017-12-12T07:07:02.619Z,992.08
2017-12-12T07:08:02.608Z,992.08
2017-12-12T07:09:02.620Z,992.15
2017-12-12T07:10:02.619Z,992.10
2017-12-12T07:11:02.630Z,992.24
2017-12-12T07:12:02.637Z,992.19
2017-12-12T07:13:02.648Z,992.23
2017-12-12T07:14:02.642Z,992.36
2017-12-12T07:15:02.653Z,992.37
2017-12-12T07:16:02.648Z,992.40
2017-12-12T07:17:02.658Z,992.43
2017-12-12T07:18:02.649Z,992.26
2017-12-12T07:19:02.658Z,992.48
2017-12-12T07:20:02.665Z,992.52
2017-12-12T07:21:02.672Z,992.49
2017-12-12T07:22:02.677Z,992.52
2017-12-12T07:23:02.738Z,992.60
2017-12-12T07:24:02.681Z,992.63
2017-12-12T07:25:02.694Z,992.72
2017-12-12T07:26:02.700Z,992.66
2017-12-12T07:27:02.694Z,992.69
2017-12-12T07:28:02.690Z,992.85
2017-12-12T07:29:02.700Z,992.77
2017-12-12T07:30:02.705Z,992.82
2017-12-12T07:31:02.729Z,992.90
2017-12-12T07:32:02.711Z,992.93
2017-12-12T07:33:02.727Z,992.92
2017-12-12T07:34:02.714Z,992.96
2017-12-12T07:35:02.727Z,992.94
2017-12-12T07:36:02.732Z,993.12
2017-12-12T07:37:02.732Z,993.05
2017-12-12T07:38:02.738Z,993.03
2017-12-12T07:39:02.746Z,993.07
2017-12-12T07:40:02.750Z,993.05
2017-12-12T07:41:02.744Z,993.17
2017-12-12T07:42:02.748Z,993.14
2017-12-12T07:43:02.804Z,993.16
2017-12-12T07:44:02.760Z,993.17
2017-12-12T07:45:02.770Z,993.18
2017-12-12T07:46:02.775Z,993.16
2017-12-12T07:47:02.776Z,993.22
2017-12-12T07:48:02.778Z,993.25
2017-12-12T07:49:02.789Z,993.25
2017-12-12T07:50:02.785Z,993.28
2017-12-12T07:51:02.794Z,993.33
2017-12-12T07:52:02.797Z,993.32
2017-12-12T07:53:02.800Z,993.43
2017-12-12T07:54:02.800Z,993.33
2017-12-12T07:55:02.818Z,993.38
2017-12-12T07:56:02.869Z,993.40
2017-12-12T07:57:02.861Z,993.46
2017-12-12T07:58:02.974Z,993.50
2017-12-12T08:00:02.832Z,993.56
2017-12-12T08:01:02.843Z,993.56
2017-12-12T08:02:02.832Z,993.63
2017-12-12T08:03:02.837Z,993.64
2017-12-12T08:04:02.839Z,993.68
2017-12-12T08:05:02.845Z,993.70
2017-12-12T08:06:02.850Z,993.74
2017-12-12T08:07:02.855Z,993.71
2017-12-12T08:08:02.863Z,993.77
2017-12-12T08:09:02.868Z,993.77
2017-12-12T08:10:02.868Z,993.81
2017-12-12T08:11:02.874Z,993.90
2017-12-12T08:12:02.880Z,993.88
2017-12-12T08:13:02.885Z,993.91
2017-12-12T08:14:02.889Z,993.91
2017-12-12T08:15:02.893Z,994.00
2017-12-12T08:16:02.894Z,993.89
2017-12-12T08:17:02.888Z,993.94
2017-12-12T08:18:02.907Z,993.92
2017-12-12T08:19:02.909Z,994.03
2017-12-12T08:20:02.913Z,994.00
2017-12-12T08:21:02.909Z,994.05
2017-12-12T08:22:02.918Z,994.08
2017-12-12T08:23:02.919Z,994.13
2017-12-12T08:24:02.927Z,994.13
2017-12-12T08:25:02.933Z,994.19
2017-12-12T08:26:02.931Z,994.35
2017-12-12T08:27:02.938Z,994.33
2017-12-12T08:28:02.965Z,994.47
2017-12-12T08:29:02.945Z,994.43
2017-12-12T08:30:02.947Z,994.42
2017-12-12T08:31:02.948Z,994.36
2017-12-12T08:32:02.954Z,994.51
2017-12-12T08:33:02.971Z,994.51
2017-12-12T08:34:02.968Z,994.54
2017-12-12T08:35:02.975Z,994.56
2017-12-12T08:36:02.992Z,994.58
2017-12-12T08:37:02.978Z,994.72
2017-12-12T08:38:02.990Z,994.65
2017-12-12T08:40:03.051Z,994.69
2017-12-12T08:41:02.995Z,994.62
2017-12-12T08:42:03.013Z,994.70
2017-12-12T08:43:03.209Z,994.69
2017-12-12T08:44:03.025Z,994.84
2017-12-12T08:45:03.022Z,994.80
2017-12-12T08:47:03.065Z,994.80
2017-12-12T08:48:03.028Z,994.87
2017-12-12T08:49:03.030Z,994.86
2017-12-12T08:50:03.045Z,994.85
2017-12-12T08:51:03.048Z,994.93
2017-12-12T08:52:03.047Z,994.94
2017-12-12T08:53:03.088Z,994.97
2017-12-12T08:54:03.056Z,994.93
2017-12-12T08:55:03.061Z,994.93
2017-12-12T08:56:03.195Z,994.94
2017-12-12T08:57:03.070Z,995.05
2017-12-12T08:59:03.072Z,995.06
2017-12-12T09:00:03.103Z,995.12
2017-12-12T09:01:03.078Z,995.04
2017-12-12T09:02:03.081Z,995.09
2017-12-12T09:03:03.086Z,995.10
2017-12-12T09:04:03.100Z,995.11
2017-12-12T09:05:03.091Z,995.15
2017-12-12T09:06:03.174Z,995.20
2017-12-12T09:07:03.104Z,995.18
2017-12-12T09:08:03.113Z,995.28
2017-12-12T09:09:03.118Z,995.25
2017-12-12T09:10:03.195Z,995.29
2017-12-12T09:11:03.159Z,995.29
2017-12-12T09:12:03.187Z,995.34
2017-12-12T09:13:03.135Z,995.37
2017-12-12T09:14:03.141Z,995.38
2017-12-12T09:15:03.179Z,995.38
2017-12-12T09:16:03.154Z,995.52
2017-12-12T09:17:03.150Z,995.43
2017-12-12T09:18:03.163Z,995.48
2017-12-12T09:19:03.157Z,995.44
2017-12-12T09:20:03.167Z,995.54
2017-12-12T09:21:03.195Z,995.55
2017-12-12T09:22:03.190Z,995.48
2017-12-12T09:23:03.177Z,995.54
2017-12-12T09:24:03.185Z,995.61
2017-12-12T09:25:03.186Z,995.59
2017-12-12T09:26:03.192Z,995.69
2017-12-12T09:27:03.211Z,995.70
2017-12-12T09:28:03.199Z,995.80
2017-12-12T09:29:03.209Z,995.80
2017-12-12T09:30:03.219Z,995.86
2017-12-12T09:31:03.226Z,995.84
2017-12-12T09:32:03.218Z,995.79
2017-12-12T09:33:03.225Z,995.74
2017-12-12T09:34:03.227Z,995.90
2017-12-12T09:35:03.509Z,995.90
2017-12-12T09:36:03.264Z,996.00
2017-12-12T09:37:03.244Z,995.94
2017-12-12T09:38:03.242Z,995.99
2017-12-12T09:39:03.246Z,996.11
2017-12-12T09:40:03.241Z,996.18
2017-12-12T09:41:03.250Z,996.04
2017-12-12T09:42:03.429Z,996.19
2017-12-12T09:43:03.259Z,996.10
2017-12-12T09:44:03.270Z,996.26
2017-12-12T09:45:03.271Z,996.29
2017-12-12T09:46:03.278Z,996.29
2017-12-12T09:47:03.278Z,996.29
2017-12-12T09:48:03.325Z,996.41
2017-12-12T09:49:03.285Z,996.38
2017-12-12T09:50:03.291Z,996.43
2017-12-12T09:51:03.293Z,996.45
2017-12-12T09:52:03.300Z,996.47
2017-12-12T09:54:03.313Z,996.46
2017-12-12T09:55:03.320Z,996.67
2017-12-12T09:56:03.318Z,996.52
2017-12-12T09:57:03.333Z,996.49
2017-12-12T09:58:03.418Z,996.54
2017-12-12T09:59:03.332Z,996.60
2017-12-12T10:00:03.332Z,996.61
2017-12-12T10:01:03.334Z,996.63
2017-12-12T10:02:03.393Z,996.62
2017-12-12T10:03:03.342Z,996.61
2017-12-12T10:04:03.352Z,996.66
2017-12-12T10:05:03.354Z,996.69
2017-12-12T10:06:03.373Z,996.67
2017-12-12T10:07:03.363Z,996.71
2017-12-12T10:08:03.366Z,996.81
2017-12-12T10:09:03.363Z,996.68
2017-12-12T10:10:03.376Z,996.74
2017-12-12T10:11:03.376Z,996.86
2017-12-12T10:12:03.382Z,996.84
2017-12-12T10:13:03.379Z,996.80
2017-12-12T10:14:03.403Z,996.85
2017-12-12T10:15:03.385Z,996.91
2017-12-12T10:16:03.438Z,996.96
2017-12-12T10:17:03.404Z,996.94
2017-12-12T10:18:03.404Z,996.99
2017-12-12T10:19:03.413Z,996.91
2017-12-12T10:20:03.411Z,996.98
2017-12-12T10:21:03.423Z,997.04
2017-12-12T10:22:03.427Z,997.02
2017-12-12T10:23:03.428Z,996.99
2017-12-12T10:24:03.434Z,997.04
2017-12-12T10:25:03.432Z,997.05
2017-12-12T10:26:03.434Z,997.03
2017-12-12T10:27:03.443Z,997.11
2017-12-12T10:28:03.479Z,997.09
2017-12-12T10:29:03.462Z,997.08
2017-12-12T10:30:03.459Z,997.08
2017-12-12T10:31:03.470Z,997.12
2017-12-12T10:32:03.466Z,997.05
2017-12-12T10:33:03.475Z,997.17
2017-12-12T10:34:03.479Z,997.21
2017-12-12T10:35:03.481Z,997.21
2017-12-12T10:36:03.484Z,997.17
2017-12-12T10:37:03.488Z,997.31
2017-12-12T10:38:03.491Z,997.29
2017-12-12T10:39:03.553Z,997.27
2017-12-12T10:40:03.498Z,997.30
2017-12-12T10:41:03.523Z,997.32
2017-12-12T10:42:03.519Z,997.35
2017-12-12T10:43:03.510Z,997.21
2017-12-12T10:44:03.500Z,997.31
2017-12-12T10:45:03.516Z,997.35
2017-12-12T10:46:03.519Z,997.47
2017-12-12T10:47:03.527Z,997.43
2017-12-12T10:48:03.532Z,997.43
2017-12-12T10:49:03.538Z,997.46
2017-12-12T10:50:03.538Z,997.49
2017-12-12T10:51:03.542Z,997.52
2017-12-12T10:52:03.559Z,997.61
2017-12-12T10:53:03.561Z,997.53
2017-12-12T10:54:03.554Z,997.59
2017-12-12T10:55:03.557Z,997.63
2017-12-12T10:56:03.569Z,997.69
2017-12-12T10:57:03.576Z,997.72
2017-12-12T10:58:03.569Z,997.68
2017-12-12T10:59:03.576Z,997.84
2017-12-12T11:00:03.576Z,997.83
2017-12-12T11:01:03.585Z,997.85
2017-12-12T11:02:03.585Z,997.82
2017-12-12T11:03:03.600Z,997.82
2017-12-12T11:04:03.603Z,997.86
2017-12-12T11:05:03.594Z,997.87
2017-12-12T11:06:03.603Z,997.86
2017-12-12T11:07:03.666Z,997.89
2017-12-12T11:08:03.607Z,997.98
2017-12-12T11:09:03.624Z,997.98
2017-12-12T11:10:03.616Z,998.01
2017-12-12T11:11:03.616Z,998.05
2017-12-12T11:12:03.625Z,998.09
2017-12-12T11:13:03.624Z,998.06
2017-12-12T11:14:03.647Z,998.15
2017-12-12T11:15:03.626Z,998.19
2017-12-12T11:16:03.631Z,998.14
2017-12-12T11:17:03.642Z,998.16
2017-12-12T11:18:03.639Z,998.22
2017-12-12T11:19:03.651Z,998.23
2017-12-12T11:20:03.651Z,998.24
2017-12-12T11:21:03.663Z,998.32
2017-12-12T11:22:03.668Z,998.34
2017-12-12T11:23:03.664Z,998.35
2017-12-12T11:24:03.672Z,998.32
2017-12-12T11:25:03.676Z,998.41
2017-12-12T11:26:03.678Z,998.32
2017-12-12T11:27:03.680Z,998.35
2017-12-12T11:28:03.692Z,998.40
2017-12-12T11:29:03.691Z,998.42
2017-12-12T11:30:03.697Z,998.48
2017-12-12T11:31:03.704Z,998.51
2017-12-12T11:32:03.699Z,998.53
2017-12-12T11:33:03.698Z,998.54
2017-12-12T11:34:03.708Z,998.56
2017-12-12T11:35:03.708Z,998.53
2017-12-12T11:36:03.714Z,998.52
2017-12-12T11:37:03.718Z,998.59
2017-12-12T11:38:03.721Z,998.57
2017-12-12T11:39:03.730Z,998.61
2017-12-12T11:40:03.741Z,998.56
2017-12-12T11:41:03.748Z,998.71
2017-12-12T11:42:03.739Z,998.70
2017-12-12T11:43:03.733Z,998.71
2017-12-12T11:44:03.743Z,998.71
2017-12-12T11:45:03.754Z,998.83
2017-12-12T11:46:03.765Z,998.72
2017-12-12T11:47:03.768Z,998.81
2017-12-12T11:48:03.760Z,998.81
2017-12-12T11:49:03.766Z,998.81
2017-12-12T11:50:03.782Z,998.86
2017-12-12T11:51:03.774Z,998.87
2017-12-12T11:52:03.781Z,998.83
2017-12-12T11:53:03.782Z,998.86
2017-12-12T11:54:03.793Z,998.81
2017-12-12T11:55:03.790Z,998.90
2017-12-12T11:56:03.800Z,998.88
2017-12-12T11:57:03.805Z,998.98
2017-12-12T11:58:03.808Z,998.93
2017-12-12T11:59:03.814Z,998.94
2017-12-12T12:00:03.809Z,998.94
2017-12-12T12:01:03.819Z,998.94
2017-12-12T12:02:03.828Z,998.94
2017-12-12T12:03:03.826Z,998.94
2017-12-12T12:04:03.830Z,998.96
2017-12-12T12:05:03.830Z,998.91
2017-12-12T12:06:03.851Z,998.92
2017-12-12T12:07:03.846Z,998.97
2017-12-12T12:08:03.848Z,998.95
2017-12-12T12:09:03.849Z,999.00
2017-12-12T12:10:03.850Z,999.02
2017-12-12T12:11:03.973Z,999.09
2017-12-12T12:12:03.867Z,999.07
2017-12-12T12:13:03.867Z,999.12
2017-12-12T12:14:03.872Z,999.10
2017-12-12T12:15:03.870Z,999.08
2017-12-12T12:16:03.875Z,999.15
2017-12-12T12:17:03.885Z,999.16
2017-12-12T12:18:03.882Z,999.16
2017-12-12T12:19:03.880Z,999.14
2017-12-12T12:20:03.894Z,999.20
2017-12-12T12:21:04.436Z,999.20
2017-12-12T12:22:03.898Z,999.23
2017-12-12T12:23:03.970Z,999.22
2017-12-12T12:24:03.927Z,999.25
2017-12-12T12:25:03.914Z,999.26
2017-12-12T12:26:03.915Z,999.28
2017-12-12T12:27:03.916Z,999.29
2017-12-12T12:28:03.919Z,999.35
2017-12-12T12:29:03.945Z,999.35
2017-12-12T12:30:03.936Z,999.44
2017-12-12T12:31:03.954Z,999.48
2017-12-12T12:32:03.942Z,999.45
2017-12-12T12:33:03.957Z,999.50
2017-12-12T12:34:03.974Z,999.54
2017-12-12T12:35:03.960Z,999.55
2017-12-12T12:36:03.980Z,999.61
2017-12-12T12:37:03.975Z,999.63
2017-12-12T12:38:03.983Z,999.65
2017-12-12T12:39:03.979Z,999.63